Airport View

Enter AWOS ICAO identifier for current METAR.

ex. KFNL

KWHP 250250Z 11004KT 10SM SKC 18/11 A2996

25 Oct 2020 11:01

Frequency: 132.1

Phone: 818-899-9820

Other Area AWOS: KBUR - KVNY - KSMO - KCQT

TAF KBUR 250530Z 2506/2606 VRB03KT P6SM BKN035 FM251900 14006KT P6SM BKN040 FM252100 19008KT P6SM BKN040 FM260400 VRB03KT P6SM BKN040